createdAt,value
2019-03-22T00:01:10.428Z,12.93
2019-03-22T00:03:39.230Z,15.10
2019-03-22T00:06:08.433Z,14.78
2019-03-22T00:08:37.405Z,15.75
2019-03-22T00:11:06.122Z,24.25
2019-03-22T00:13:34.888Z,22.55
2019-03-22T00:16:03.745Z,28.30
2019-03-22T00:18:33.923Z,32.03
2019-03-22T00:21:02.854Z,31.23
2019-03-22T00:23:31.639Z,33.58
2019-03-22T00:26:00.464Z,30.55
2019-03-22T00:28:29.262Z,19.48
2019-03-22T00:30:58.083Z,15.88
2019-03-22T00:33:26.931Z,17.55
2019-03-22T00:35:55.738Z,16.93
2019-03-22T00:38:24.612Z,16.55
2019-03-22T00:40:53.476Z,13.50
2019-03-22T00:43:22.197Z,22.13
2019-03-22T00:45:50.995Z,20.80
2019-03-22T00:48:20.073Z,20.60
2019-03-22T00:50:49.130Z,21.52
2019-03-22T00:53:17.865Z,24.92
2019-03-22T00:55:46.611Z,19.85
2019-03-22T00:58:15.533Z,19.23
2019-03-22T01:00:44.331Z,32.25
2019-03-22T01:03:13.060Z,31.25
2019-03-22T01:05:41.996Z,26.20
2019-03-22T01:08:11.019Z,24.77
2019-03-22T01:10:39.787Z,27.35
2019-03-22T01:13:08.508Z,32.80
2019-03-22T01:15:37.303Z,27.32
2019-03-22T01:18:06.135Z,29.77
2019-03-22T01:20:35.071Z,34.27
2019-03-22T01:23:03.839Z,31.37
2019-03-22T01:25:32.728Z,30.27
2019-03-22T01:28:01.976Z,33.73
2019-03-22T01:30:30.721Z,30.92
2019-03-22T01:32:59.547Z,29.87
2019-03-22T01:35:28.792Z,34.23
2019-03-22T01:37:57.525Z,33.55
2019-03-22T01:40:26.398Z,33.25
2019-03-22T01:42:55.249Z,32.23
2019-03-22T01:45:24.096Z,42.40
2019-03-22T01:47:52.870Z,42.45
2019-03-22T01:50:21.643Z,29.57
2019-03-22T01:52:50.457Z,43.10
2019-03-22T01:55:19.279Z,34.78
2019-03-22T01:57:53.447Z,31.75
2019-03-22T02:00:19.016Z,30.20
2019-03-22T02:02:47.807Z,25.50
2019-03-22T02:05:16.721Z,28.83
2019-03-22T02:07:45.411Z,28.32
2019-03-22T02:10:15.302Z,27.93
2019-03-22T02:12:43.948Z,19.12
2019-03-22T02:15:13.350Z,25.60
2019-03-22T02:17:42.078Z,21.05
2019-03-22T02:20:10.997Z,21.73
2019-03-22T02:22:39.669Z,24.82
2019-03-22T02:25:08.982Z,21.77
2019-03-22T02:27:37.689Z,27.48
2019-03-22T02:30:07.721Z,23.77
2019-03-22T02:32:36.367Z,24.80
2019-03-22T02:35:05.947Z,26.95
2019-03-22T02:37:34.696Z,21.60
2019-03-22T02:40:04.403Z,24.77
2019-03-22T02:42:33.060Z,25.08
2019-03-22T02:45:01.713Z,23.45
2019-03-22T02:47:30.506Z,24.43
2019-03-22T02:49:59.176Z,23.18
2019-03-22T02:52:27.836Z,26.62
2019-03-22T02:54:56.531Z,24.95
2019-03-22T02:57:25.237Z,21.30
2019-03-22T02:59:53.892Z,24.57
2019-03-22T03:02:22.648Z,19.75
2019-03-22T03:04:51.480Z,20.15
2019-03-22T03:07:20.318Z,20.72
2019-03-22T03:09:48.965Z,18.85
2019-03-22T03:12:17.661Z,20.20
2019-03-22T03:14:46.368Z,18.85
2019-03-22T03:17:15.130Z,20.48
2019-03-22T03:19:43.927Z,21.75
2019-03-22T03:22:12.848Z,20.02
2019-03-22T03:24:41.702Z,22.17
2019-03-22T03:27:10.440Z,18.60
2019-03-22T03:29:39.688Z,20.00
2019-03-22T03:32:08.516Z,21.10
2019-03-22T03:34:37.340Z,20.23
2019-03-22T03:37:05.961Z,20.97
2019-03-22T03:39:34.672Z,21.20
2019-03-22T03:42:03.458Z,22.17
2019-03-22T03:44:32.123Z,16.95
2019-03-22T03:47:00.912Z,24.05
2019-03-22T03:49:29.614Z,20.77
2019-03-22T03:51:58.387Z,21.45
2019-03-22T03:54:27.060Z,22.93
2019-03-22T03:56:55.785Z,19.87
2019-03-22T03:59:24.490Z,24.55
2019-03-22T04:01:53.293Z,19.20
2019-03-22T04:04:21.969Z,18.12
2019-03-22T04:06:50.756Z,19.15
2019-03-22T04:09:19.487Z,18.80
2019-03-22T04:11:48.311Z,20.25
2019-03-22T04:14:17.328Z,19.45
2019-03-22T04:16:46.253Z,21.68
2019-03-22T04:19:17.046Z,23.47
2019-03-22T04:21:45.836Z,22.07
2019-03-22T04:24:14.536Z,20.80
2019-03-22T04:26:43.241Z,21.15
2019-03-22T04:29:12.022Z,17.80
2019-03-22T04:31:40.766Z,22.13
2019-03-22T04:34:09.564Z,19.30
2019-03-22T04:36:38.322Z,23.52
2019-03-22T04:39:07.857Z,21.52
2019-03-22T04:41:37.106Z,23.67
2019-03-22T04:44:05.912Z,18.05
2019-03-22T04:46:36.800Z,17.10
2019-03-22T04:49:05.744Z,18.62
2019-03-22T04:51:34.608Z,19.25
2019-03-22T04:54:04.901Z,25.90
2019-03-22T04:56:36.486Z,21.60
2019-03-22T04:59:18.448Z,17.80
2019-03-22T05:01:40.772Z,27.05
2019-03-22T05:04:10.013Z,22.58
2019-03-22T05:06:40.473Z,18.50
2019-03-22T05:09:11.537Z,18.05
2019-03-22T05:11:42.419Z,19.90
2019-03-22T05:14:12.264Z,19.52
2019-03-22T05:16:43.686Z,26.07
2019-03-22T05:19:13.488Z,22.50
2019-03-22T05:21:43.286Z,22.20
2019-03-22T05:24:14.292Z,20.57
2019-03-22T05:26:43.842Z,20.80
2019-03-22T05:29:13.794Z,25.12
2019-03-22T05:32:07.955Z,21.77
2019-03-22T05:34:36.788Z,19.23
2019-03-22T05:37:05.732Z,24.12
2019-03-22T05:39:34.496Z,27.05
2019-03-22T05:42:03.489Z,20.90
2019-03-22T05:44:32.220Z,23.02
2019-03-22T05:47:01.808Z,22.73
2019-03-22T05:49:30.530Z,23.73
2019-03-22T05:51:59.292Z,18.98
2019-03-22T05:54:28.092Z,22.77
2019-03-22T05:56:56.945Z,20.17
2019-03-22T05:59:25.774Z,17.42
2019-03-22T06:01:54.655Z,19.87
2019-03-22T06:04:23.922Z,17.52
2019-03-22T06:06:52.642Z,29.80
2019-03-22T06:09:21.742Z,23.55
2019-03-22T06:11:50.823Z,28.25
2019-03-22T06:14:19.764Z,21.90
2019-03-22T06:16:48.632Z,29.07
2019-03-22T06:19:17.512Z,30.92
2019-03-22T06:21:46.737Z,21.52
2019-03-22T06:24:15.793Z,23.47
2019-03-22T06:26:44.775Z,20.27
2019-03-22T06:29:13.779Z,22.20
2019-03-22T06:31:43.046Z,25.80
2019-03-22T06:34:11.967Z,25.15
2019-03-22T06:36:40.941Z,26.57
2019-03-22T06:39:10.445Z,23.62
2019-03-22T06:41:39.848Z,16.23
2019-03-22T06:44:08.869Z,22.13
2019-03-22T06:46:40.896Z,17.52
2019-03-22T06:49:09.812Z,17.17
2019-03-22T06:51:38.609Z,17.07
2019-03-22T06:54:07.555Z,13.65
2019-03-22T06:56:36.320Z,15.10
2019-03-22T06:59:05.280Z,14.75
2019-03-22T07:01:34.288Z,15.98
2019-03-22T07:04:04.270Z,13.70
2019-03-22T07:06:33.123Z,15.32
2019-03-22T07:09:01.944Z,15.95
2019-03-22T07:11:31.872Z,28.77
2019-03-22T07:14:00.708Z,17.40
2019-03-22T07:16:29.645Z,19.82
2019-03-22T07:18:58.471Z,15.70
2019-03-22T07:21:27.278Z,21.37
2019-03-22T07:23:56.095Z,16.55
2019-03-22T07:26:24.823Z,20.23
2019-03-22T07:28:53.685Z,16.52
2019-03-22T07:31:22.468Z,23.27
2019-03-22T07:33:51.273Z,22.82
2019-03-22T07:36:20.047Z,16.48
2019-03-22T07:38:49.916Z,19.75
2019-03-22T07:41:18.780Z,16.12
2019-03-22T07:43:47.559Z,18.77
2019-03-22T07:46:16.348Z,17.12
2019-03-22T07:48:45.414Z,17.62
2019-03-22T07:51:14.326Z,22.62
2019-03-22T07:53:43.409Z,15.80
2019-03-22T07:56:12.194Z,14.75
2019-03-22T07:58:40.933Z,15.23
2019-03-22T08:01:09.703Z,14.30
2019-03-22T08:03:38.610Z,15.58
2019-03-22T08:06:07.451Z,14.68
2019-03-22T08:08:36.322Z,14.50
2019-03-22T08:11:05.248Z,14.45
2019-03-22T08:13:34.237Z,14.13
2019-03-22T08:16:03.121Z,16.23
2019-03-22T08:18:32.209Z,12.18
2019-03-22T08:21:00.919Z,13.28
2019-03-22T08:23:29.764Z,16.60
2019-03-22T08:25:58.589Z,14.40
2019-03-22T08:28:27.381Z,18.25
2019-03-22T08:30:56.186Z,13.60
2019-03-22T08:33:30.710Z,16.97
2019-03-22T08:35:59.553Z,17.48
2019-03-22T08:38:28.347Z,13.15
2019-03-22T08:40:57.196Z,16.20
2019-03-22T08:43:26.068Z,13.65
2019-03-22T08:45:54.931Z,15.58
2019-03-22T08:48:23.695Z,13.98
2019-03-22T08:50:52.533Z,16.55
2019-03-22T08:53:21.424Z,12.30
2019-03-22T08:55:50.473Z,13.22
2019-03-22T08:58:19.277Z,15.58
2019-03-22T09:00:57.265Z,12.55
2019-03-22T09:03:18.905Z,10.73
2019-03-22T09:05:47.727Z,11.93
2019-03-22T09:08:16.638Z,12.70
2019-03-22T09:10:45.397Z,9.87
2019-03-22T09:13:14.208Z,10.50
2019-03-22T09:15:43.369Z,12.07
2019-03-22T09:18:12.129Z,14.20
2019-03-22T09:20:40.962Z,14.00
2019-03-22T09:23:09.750Z,14.50
2019-03-22T09:25:38.664Z,11.03
2019-03-22T09:28:10.285Z,10.53
2019-03-22T09:30:38.132Z,9.10
2019-03-22T09:33:06.967Z,11.80
2019-03-22T09:35:36.061Z,11.77
2019-03-22T09:38:12.918Z,12.27
2019-03-22T09:40:35.790Z,9.50
2019-03-22T09:43:04.586Z,12.57
2019-03-22T09:45:33.520Z,11.80
2019-03-22T09:48:52.884Z,11.93
2019-03-22T09:51:21.765Z,14.27
2019-03-22T09:53:50.650Z,9.60
2019-03-22T09:56:19.510Z,7.00
2019-03-22T09:58:48.508Z,7.60
2019-03-22T10:01:23.485Z,8.77
2019-03-22T10:03:48.753Z,8.97
2019-03-22T10:06:17.525Z,11.03
2019-03-22T10:08:47.217Z,9.23
2019-03-22T10:11:16.079Z,9.33
2019-03-22T10:13:48.485Z,12.07
2019-03-22T10:16:17.336Z,11.33
2019-03-22T10:18:46.258Z,11.57
2019-03-22T10:21:22.386Z,9.90
2019-03-22T10:23:46.271Z,10.43
2019-03-22T10:26:14.994Z,10.80
2019-03-22T10:28:43.725Z,10.30
2019-03-22T10:31:12.611Z,9.80
2019-03-22T10:33:41.452Z,11.40
2019-03-22T10:36:10.379Z,11.70
2019-03-22T10:38:39.082Z,11.33
2019-03-22T10:41:08.088Z,9.37
2019-03-22T10:43:36.808Z,10.37
2019-03-22T10:46:07.966Z,10.20
2019-03-22T10:48:36.498Z,9.43
2019-03-22T10:51:07.753Z,9.63
2019-03-22T10:53:37.788Z,17.30
2019-03-22T10:56:06.572Z,14.70
2019-03-22T10:58:35.390Z,11.67
2019-03-22T11:01:08.058Z,12.20
2019-03-22T11:03:35.338Z,12.20
2019-03-22T11:06:04.093Z,13.33
2019-03-22T11:08:32.931Z,11.27
2019-03-22T11:11:02.698Z,11.30
2019-03-22T11:13:33.239Z,10.77
2019-03-22T11:16:02.012Z,8.37
2019-03-22T11:18:37.450Z,11.90
2019-03-22T11:21:05.446Z,10.63
2019-03-22T11:23:33.211Z,12.40
2019-03-22T11:26:04.311Z,11.73
2019-03-22T11:28:33.372Z,11.17
2019-03-22T11:31:04.929Z,14.67
2019-03-22T11:33:32.773Z,11.13
2019-03-22T11:36:01.507Z,10.47
2019-03-22T11:38:33.517Z,14.70
2019-03-22T11:41:02.697Z,15.07
2019-03-22T11:43:31.352Z,13.27
2019-03-22T11:46:00.185Z,10.10
2019-03-22T11:48:29.043Z,8.17
2019-03-22T11:50:57.884Z,9.13
2019-03-22T11:53:27.372Z,11.67
2019-03-22T11:55:56.041Z,11.57
2019-03-22T11:58:24.719Z,13.50
2019-03-22T12:00:53.526Z,13.80
2019-03-22T12:03:22.531Z,21.43
2019-03-22T12:05:51.227Z,15.47
2019-03-22T12:08:20.806Z,10.47
2019-03-22T12:10:49.586Z,13.33
2019-03-22T12:13:18.328Z,13.27
2019-03-22T12:15:47.166Z,9.77
2019-03-22T12:18:17.968Z,12.63
2019-03-22T12:20:47.008Z,14.33
2019-03-22T12:23:15.795Z,10.30
2019-03-22T12:25:48.072Z,14.53
2019-03-22T12:28:16.882Z,11.20
2019-03-22T12:30:45.855Z,10.57
2019-03-22T12:33:35.494Z,11.30
2019-03-22T12:36:04.627Z,10.23
2019-03-22T12:38:33.603Z,9.20
2019-03-22T12:41:04.635Z,11.77
2019-03-22T12:43:34.256Z,13.27
2019-03-22T12:46:03.441Z,9.03
2019-03-22T12:48:32.134Z,11.40
2019-03-22T12:51:00.951Z,9.13
2019-03-22T12:53:29.678Z,12.70
2019-03-22T12:55:58.487Z,9.20
2019-03-22T12:58:28.306Z,11.90
2019-03-22T13:04:39.997Z,11.13
2019-03-22T13:07:09.229Z,10.07
2019-03-22T13:09:37.989Z,17.53
2019-03-22T13:12:06.785Z,13.90
2019-03-22T13:14:37.961Z,14.20
2019-03-22T13:17:06.812Z,11.37
2019-03-22T13:19:35.830Z,10.53
2019-03-22T13:22:04.753Z,13.40
2019-03-22T13:24:33.570Z,11.60
2019-03-22T13:27:02.500Z,14.90
2019-03-22T13:29:33.026Z,12.80
2019-03-22T13:32:02.845Z,10.80
2019-03-22T13:34:31.836Z,8.63
2019-03-22T13:37:00.622Z,10.23
2019-03-22T13:39:30.704Z,8.10
2019-03-22T13:41:59.761Z,7.90
2019-03-22T13:44:28.612Z,11.40
2019-03-22T13:46:57.939Z,9.27
2019-03-22T13:49:26.883Z,9.10
2019-03-22T13:51:56.476Z,7.87
2019-03-22T13:54:25.386Z,8.97
2019-03-22T13:56:54.551Z,8.27
2019-03-22T13:59:23.452Z,9.40
2019-03-22T14:01:52.811Z,9.03
2019-03-22T14:04:22.337Z,9.60
2019-03-22T14:06:51.318Z,8.23
2019-03-22T14:09:20.269Z,6.37
2019-03-22T14:11:49.128Z,6.67
2019-03-22T14:14:18.474Z,8.30
2019-03-22T14:16:47.208Z,7.53
2019-03-22T14:19:16.129Z,4.60
2019-03-22T14:21:44.940Z,6.33
2019-03-22T14:24:15.540Z,9.57
2019-03-22T14:26:44.419Z,7.93
2019-03-22T14:29:13.442Z,7.70
2019-03-22T14:31:42.720Z,7.07
2019-03-22T14:34:13.087Z,6.17
2019-03-22T14:36:41.926Z,7.63
2019-03-22T14:39:10.668Z,7.77
2019-03-22T14:41:39.577Z,10.33
2019-03-22T14:44:08.857Z,4.93
2019-03-22T14:46:38.057Z,4.27
2019-03-22T14:49:06.944Z,8.53
2019-03-22T14:51:35.941Z,5.50
2019-03-22T14:54:07.775Z,4.23
2019-03-22T14:56:36.668Z,4.33
2019-03-22T14:59:05.471Z,7.00
2019-03-22T15:01:34.441Z,4.67
2019-03-22T15:04:03.224Z,5.60
2019-03-22T15:06:32.148Z,8.53
2019-03-22T15:09:00.920Z,5.33
2019-03-22T15:11:29.913Z,4.50
2019-03-22T15:14:04.921Z,7.17
2019-03-22T15:17:02.211Z,6.57
2019-03-22T15:20:06.851Z,4.50
2019-03-22T15:22:59.227Z,7.00
2019-03-22T15:25:54.483Z,6.83
2019-03-22T15:28:57.869Z,5.87
2019-03-22T15:31:43.486Z,5.87
2019-03-22T15:34:30.476Z,7.10
2019-03-22T15:37:17.674Z,3.80
2019-03-22T15:40:02.279Z,3.10
2019-03-22T15:42:31.505Z,3.60
2019-03-22T15:45:00.705Z,3.40
2019-03-22T15:47:31.173Z,4.77
2019-03-22T15:50:03.143Z,10.53
2019-03-22T15:52:32.973Z,2.97
2019-03-22T15:55:02.069Z,5.63
2019-03-22T15:57:31.247Z,5.97
2019-03-22T16:00:00.354Z,4.03
2019-03-22T16:02:29.358Z,7.10
2019-03-22T16:04:58.490Z,4.90
2019-03-22T16:07:27.408Z,5.63
2019-03-22T16:09:56.579Z,3.90
2019-03-22T16:12:25.534Z,3.73
2019-03-22T16:14:55.287Z,5.13
2019-03-22T16:17:24.143Z,4.10
2019-03-22T16:19:53.286Z,5.50
2019-03-22T16:22:24.010Z,3.87
2019-03-22T16:24:52.860Z,4.93
2019-03-22T16:27:21.707Z,4.63
2019-03-22T16:29:50.589Z,6.83
2019-03-22T16:32:19.579Z,4.33
2019-03-22T16:34:48.521Z,4.47
2019-03-22T16:37:17.409Z,4.43
2019-03-22T16:39:47.267Z,4.00
2019-03-22T16:42:16.258Z,3.17
2019-03-22T16:44:46.166Z,4.63
2019-03-22T16:47:15.090Z,6.10
2019-03-22T16:49:43.836Z,4.30
2019-03-22T16:52:12.773Z,5.63
2019-03-22T16:54:41.649Z,4.00
2019-03-22T16:57:10.588Z,4.77
2019-03-22T16:59:39.371Z,4.23
2019-03-22T17:02:08.637Z,4.97
2019-03-22T17:04:38.866Z,3.97
2019-03-22T17:07:07.853Z,3.53
2019-03-22T17:09:37.754Z,8.27
2019-03-22T17:12:09.505Z,4.77
2019-03-22T17:14:38.311Z,3.50
2019-03-22T17:17:07.129Z,5.70
2019-03-22T17:19:35.961Z,4.40
2019-03-22T17:22:04.891Z,5.30
2019-03-22T17:24:33.867Z,5.30
2019-03-22T17:27:03.052Z,5.60
2019-03-22T17:29:31.999Z,5.00
2019-03-22T17:32:01.026Z,6.00
2019-03-22T17:34:30.045Z,4.90
2019-03-22T17:36:58.879Z,5.07
2019-03-22T17:39:27.798Z,5.23
2019-03-22T17:41:56.658Z,4.90
2019-03-22T17:44:25.603Z,5.70
2019-03-22T17:46:54.416Z,7.20
2019-03-22T17:49:23.571Z,6.37
2019-03-22T17:51:53.684Z,4.90
2019-03-22T17:54:22.819Z,6.90
2019-03-22T17:56:51.618Z,5.03
2019-03-22T17:59:20.527Z,4.90
2019-03-22T18:01:49.644Z,6.47
2019-03-22T18:04:24.304Z,8.87
2019-03-22T18:06:51.567Z,8.03
2019-03-22T18:09:20.648Z,8.33
2019-03-22T18:11:49.672Z,7.27
2019-03-22T18:14:19.137Z,5.50
2019-03-22T18:16:48.187Z,6.43
2019-03-22T18:19:17.296Z,7.70
2019-03-22T18:21:46.383Z,8.37
2019-03-22T18:24:15.341Z,9.73
2019-03-22T18:26:44.191Z,6.80
2019-03-22T18:29:13.185Z,7.33
2019-03-22T18:31:41.972Z,11.07
2019-03-22T18:34:10.807Z,7.63
2019-03-22T18:36:39.823Z,10.90
2019-03-22T18:39:09.267Z,14.77
2019-03-22T18:41:38.470Z,13.10
2019-03-22T18:44:07.288Z,16.90
2019-03-22T18:46:36.165Z,11.67
2019-03-22T18:49:04.947Z,10.37
2019-03-22T18:51:33.813Z,10.83
2019-03-22T18:54:03.017Z,11.63
2019-03-22T18:56:32.112Z,11.03
2019-03-22T18:59:01.530Z,9.77
2019-03-22T19:01:30.659Z,12.40
2019-03-22T19:03:59.779Z,17.00
2019-03-22T19:06:29.106Z,13.77
2019-03-22T19:08:58.059Z,15.40
2019-03-22T19:11:27.175Z,14.63
2019-03-22T19:13:56.211Z,13.87
2019-03-22T19:16:25.052Z,15.33
2019-03-22T19:18:54.133Z,9.53
2019-03-22T19:21:22.975Z,13.07
2019-03-22T19:23:51.781Z,14.23
2019-03-22T19:26:20.656Z,12.40
2019-03-22T19:28:49.553Z,12.07
2019-03-22T19:31:18.556Z,17.73
2019-03-22T19:33:47.446Z,11.60
2019-03-22T19:36:16.473Z,14.53
2019-03-22T19:38:45.503Z,11.90
2019-03-22T19:41:14.386Z,11.87
2019-03-22T19:43:43.251Z,11.30
2019-03-22T19:46:12.365Z,10.00
2019-03-22T19:48:41.185Z,12.77
2019-03-22T19:51:10.103Z,13.80
2019-03-22T19:53:40.021Z,12.17
2019-03-22T19:56:09.246Z,16.13
2019-03-22T19:58:38.117Z,16.03
2019-03-22T20:01:07.017Z,14.93
2019-03-22T20:03:36.020Z,12.37
2019-03-22T20:06:05.008Z,13.20
2019-03-22T20:08:34.785Z,12.20
2019-03-22T20:11:03.743Z,15.93
2019-03-22T20:13:33.716Z,15.05
2019-03-22T20:16:02.767Z,20.40
2019-03-22T20:18:31.742Z,12.30
2019-03-22T20:21:00.793Z,17.73
2019-03-22T20:23:29.872Z,16.13
2019-03-22T20:25:58.922Z,12.55
2019-03-22T20:28:30.478Z,14.70
2019-03-22T20:30:59.604Z,15.20
2019-03-22T20:33:28.614Z,14.53
2019-03-22T20:35:57.752Z,14.07
2019-03-22T20:38:27.360Z,13.88
2019-03-22T20:40:56.641Z,14.80
2019-03-22T20:43:25.848Z,15.68
2019-03-22T20:45:54.815Z,11.75
2019-03-22T20:48:23.788Z,19.27
2019-03-22T20:50:53.254Z,17.10
2019-03-22T20:53:22.401Z,15.88
2019-03-22T20:55:51.614Z,15.07
2019-03-22T20:58:20.568Z,12.95
2019-03-22T21:00:49.428Z,14.90
2019-03-22T21:03:18.441Z,16.30
2019-03-22T21:05:47.927Z,13.30
2019-03-22T21:08:17.014Z,15.80
2019-03-22T21:10:45.948Z,11.80
2019-03-22T21:13:14.889Z,11.38
2019-03-22T21:15:43.932Z,19.20
2019-03-22T21:18:12.809Z,19.95
2019-03-22T21:20:41.864Z,13.00
2019-03-22T21:23:10.675Z,19.00
2019-03-22T21:25:39.556Z,13.10
2019-03-22T21:28:09.441Z,14.85
2019-03-22T21:30:38.350Z,14.05
2019-03-22T21:33:07.298Z,17.75
2019-03-22T21:35:37.793Z,14.68
2019-03-22T21:38:10.999Z,12.90
2019-03-22T21:40:37.936Z,14.00
2019-03-22T21:43:06.768Z,14.90
2019-03-22T21:45:38.239Z,21.20
2019-03-22T21:48:07.170Z,17.02
2019-03-22T21:50:36.277Z,14.95
2019-03-22T21:53:07.196Z,17.07
2019-03-22T21:55:36.314Z,16.42
2019-03-22T21:58:05.550Z,15.48
2019-03-22T22:00:34.600Z,16.87
2019-03-22T22:03:13.321Z,29.67
2019-03-22T22:05:47.931Z,14.53
2019-03-22T22:08:17.154Z,17.92
2019-03-22T22:10:59.306Z,17.98
2019-03-22T22:13:21.958Z,15.58
2019-03-22T22:15:51.561Z,16.45
2019-03-22T22:18:21.255Z,17.30
2019-03-22T22:20:51.334Z,15.28
2019-03-22T22:23:24.341Z,16.25
2019-03-22T22:25:54.451Z,17.52
2019-03-22T22:28:23.572Z,19.48
2019-03-22T22:30:53.310Z,20.40
2019-03-22T22:33:23.213Z,15.48
2019-03-22T22:35:58.587Z,20.50
2019-03-22T22:38:22.959Z,25.15
2019-03-22T22:40:51.874Z,19.57
2019-03-22T22:43:20.741Z,17.82
2019-03-22T22:45:49.610Z,19.70
2019-03-22T22:48:18.719Z,18.00
2019-03-22T22:50:47.585Z,18.27
2019-03-22T22:53:16.477Z,15.45
2019-03-22T22:55:45.378Z,16.85
2019-03-22T22:58:14.343Z,17.80
2019-03-22T23:00:43.511Z,14.40
2019-03-22T23:03:12.555Z,17.30
2019-03-22T23:05:41.523Z,18.92
2019-03-22T23:08:10.447Z,18.02
2019-03-22T23:10:40.545Z,19.92
2019-03-22T23:13:09.470Z,15.72
2019-03-22T23:15:38.253Z,19.35
2019-03-22T23:18:07.449Z,16.27
2019-03-22T23:20:36.249Z,16.05
2019-03-22T23:23:05.220Z,19.05
2019-03-22T23:25:34.080Z,15.80
2019-03-22T23:28:05.749Z,18.27
2019-03-22T23:30:34.765Z,18.25
2019-03-22T23:33:03.550Z,15.98
2019-03-22T23:35:32.427Z,16.93
2019-03-22T23:38:01.369Z,18.05
2019-03-22T23:40:30.655Z,14.53
2019-03-22T23:42:59.749Z,15.32
2019-03-22T23:45:28.657Z,17.42
2019-03-22T23:47:58.054Z,16.75
2019-03-22T23:50:27.078Z,16.42
2019-03-22T23:52:55.914Z,17.25
2019-03-22T23:55:24.693Z,22.32
2019-03-22T23:57:53.522Z,18.23
